sensor_id;sensor_type;location;lat;lon;timestamp;pressure;altitude;pressure_sealevel;temperature
73685;BMP280;61985;51.070;14.064;2023-11-19T00:01:36;98689.94;;;2.69
73685;BMP280;61985;51.070;14.064;2023-11-19T00:04:02;98684.28;;;2.70
73685;BMP280;61985;51.070;14.064;2023-11-19T00:07:06;98679.66;;;2.64
73685;BMP280;61985;51.070;14.064;2023-11-19T00:15:54;98649.81;;;2.44
73685;BMP280;61985;51.070;14.064;2023-11-19T00:18:22;98634.94;;;2.39
73685;BMP280;61985;51.070;14.064;2023-11-19T00:20:48;98632.72;;;2.45
73685;BMP280;61985;51.070;14.064;2023-11-19T00:23:17;98630.34;;;2.36
73685;BMP280;61985;51.070;14.064;2023-11-19T00:25:42;98606.81;;;2.38
73685;BMP280;61985;51.070;14.064;2023-11-19T00:28:08;98596.50;;;2.33
73685;BMP280;61985;51.070;14.064;2023-11-19T00:30:33;98590.75;;;2.27
73685;BMP280;61985;51.070;14.064;2023-11-19T00:32:59;98590.41;;;2.29
73685;BMP280;61985;51.070;14.064;2023-11-19T00:35:25;98588.47;;;2.26
73685;BMP280;61985;51.070;14.064;2023-11-19T00:37:51;98580.19;;;2.31
73685;BMP280;61985;51.070;14.064;2023-11-19T00:40:17;98585.88;;;2.33
73685;BMP280;61985;51.070;14.064;2023-11-19T00:42:43;98589.28;;;2.33
73685;BMP280;61985;51.070;14.064;2023-11-19T00:45:12;98591.22;;;2.36
73685;BMP280;61985;51.070;14.064;2023-11-19T00:47:38;98589.28;;;2.33
73685;BMP280;61985;51.070;14.064;2023-11-19T00:50:07;98592.41;;;2.39
73685;BMP280;61985;51.070;14.064;2023-11-19T00:52:35;98579.84;;;2.40
73685;BMP280;61985;51.070;14.064;2023-11-19T00:55:01;98577.97;;;2.40
73685;BMP280;61985;51.070;14.064;2023-11-19T00:57:27;98574.16;;;2.41
73685;BMP280;61985;51.070;14.064;2023-11-19T00:59:53;98569.28;;;2.43
73685;BMP280;61985;51.070;14.064;2023-11-19T01:02:19;98571.16;;;2.43
73685;BMP280;61985;51.070;14.064;2023-11-19T01:04:44;98562.38;;;2.39
73685;BMP280;61985;51.070;14.064;2023-11-19T01:07:10;98558.25;;;2.45
73685;BMP280;61985;51.070;14.064;2023-11-19T01:09:38;98561.28;;;2.43
73685;BMP280;61985;51.070;14.064;2023-11-19T01:12:11;98549.50;;;2.44
73685;BMP280;61985;51.070;14.064;2023-11-19T01:14:37;98520.25;;;2.44
73685;BMP280;61985;51.070;14.064;2023-11-19T01:17:11;98524.00;;;2.40
73685;BMP280;61985;51.070;14.064;2023-11-19T01:19:39;98516.81;;;2.40
73685;BMP280;61985;51.070;14.064;2023-11-19T01:22:07;98501.97;;;2.39
73685;BMP280;61985;51.070;14.064;2023-11-19T01:24:35;98501.25;;;2.42
73685;BMP280;61985;51.070;14.064;2023-11-19T01:27:01;98502.00;;;2.43
73685;BMP280;61985;51.070;14.064;2023-11-19T01:29:27;98484.91;;;2.40
73685;BMP280;61985;51.070;14.064;2023-11-19T01:34:33;98491.41;;;2.46
73685;BMP280;61985;51.070;14.064;2023-11-19T01:37:06;98495.63;;;2.51
73685;BMP280;61985;51.070;14.064;2023-11-19T01:39:45;98483.00;;;2.44
73685;BMP280;61985;51.070;14.064;2023-11-19T01:42:11;98480.81;;;2.53
73685;BMP280;61985;51.070;14.064;2023-11-19T01:44:55;98472.44;;;2.48
73685;BMP280;61985;51.070;14.064;2023-11-19T01:47:25;98468.22;;;2.47
73685;BMP280;61985;51.070;14.064;2023-11-19T01:49:53;98459.16;;;2.51
73685;BMP280;61985;51.070;14.064;2023-11-19T01:52:20;98451.16;;;2.51
73685;BMP280;61985;51.070;14.064;2023-11-19T01:54:46;98456.09;;;2.49
73685;BMP280;61985;51.070;14.064;2023-11-19T01:57:15;98454.22;;;2.53
73685;BMP280;61985;51.070;14.064;2023-11-19T01:59:55;98458.03;;;2.52
73685;BMP280;61985;51.070;14.064;2023-11-19T02:02:23;98441.69;;;2.54
73685;BMP280;61985;51.070;14.064;2023-11-19T02:04:52;98436.75;;;2.52
73685;BMP280;61985;51.070;14.064;2023-11-19T02:07:18;98434.50;;;2.58
73685;BMP280;61985;51.070;14.064;2023-11-19T02:09:47;98420.06;;;2.56
73685;BMP280;61985;51.070;14.064;2023-11-19T02:12:12;98411.66;;;2.53
73685;BMP280;61985;51.070;14.064;2023-11-19T02:14:38;98398.03;;;2.59
73685;BMP280;61985;51.070;14.064;2023-11-19T02:17:04;98393.44;;;2.56
73685;BMP280;61985;51.070;14.064;2023-11-19T02:19:30;98382.44;;;2.57
73685;BMP280;61985;51.070;14.064;2023-11-19T02:21:59;98382.47;;;2.61
73685;BMP280;61985;51.070;14.064;2023-11-19T02:24:27;98376.38;;;2.60
73685;BMP280;61985;51.070;14.064;2023-11-19T02:27:08;98356.25;;;2.63
73685;BMP280;61985;51.070;14.064;2023-11-19T02:29:36;98358.91;;;2.63
73685;BMP280;61985;51.070;14.064;2023-11-19T02:32:02;98359.69;;;2.70
73685;BMP280;61985;51.070;14.064;2023-11-19T02:34:28;98347.88;;;2.68
73685;BMP280;61985;51.070;14.064;2023-11-19T02:36:59;98336.50;;;2.64
73685;BMP280;61985;51.070;14.064;2023-11-19T02:39:27;98324.69;;;2.65
73685;BMP280;61985;51.070;14.064;2023-11-19T02:41:55;98331.53;;;2.62
73685;BMP280;61985;51.070;14.064;2023-11-19T02:44:23;98327.78;;;2.67
73685;BMP280;61985;51.070;14.064;2023-11-19T02:46:49;98317.50;;;2.65
73685;BMP280;61985;51.070;14.064;2023-11-19T02:49:16;98310.66;;;2.71
73685;BMP280;61985;51.070;14.064;2023-11-19T02:51:48;98309.50;;;2.69
73685;BMP280;61985;51.070;14.064;2023-11-19T02:54:14;98297.38;;;2.75
73685;BMP280;61985;51.070;14.064;2023-11-19T02:56:42;98295.84;;;2.74
73685;BMP280;61985;51.070;14.064;2023-11-19T02:59:08;98301.94;;;2.78
73685;BMP280;61985;51.070;14.064;2023-11-19T03:01:43;98291.69;;;2.80
73685;BMP280;61985;51.070;14.064;2023-11-19T03:04:14;98281.03;;;2.80
73685;BMP280;61985;51.070;14.064;2023-11-19T03:06:42;98265.84;;;2.84
73685;BMP280;61985;51.070;14.064;2023-11-19T03:09:10;98253.72;;;2.87
73685;BMP280;61985;51.070;14.064;2023-11-19T03:11:36;98258.25;;;2.86
73685;BMP280;61985;51.070;14.064;2023-11-19T03:14:04;98248.78;;;2.93
73685;BMP280;61985;51.070;14.064;2023-11-19T03:16:30;98241.56;;;3.04
73685;BMP280;61985;51.070;14.064;2023-11-19T03:19:00;98239.66;;;3.01
73685;BMP280;61985;51.070;14.064;2023-11-19T03:21:35;98219.50;;;3.00
73685;BMP280;61985;51.070;14.064;2023-11-19T03:24:08;98211.16;;;2.98
73685;BMP280;61985;51.070;14.064;2023-11-19T03:26:34;98226.34;;;3.01
73685;BMP280;61985;51.070;14.064;2023-11-19T03:29:00;98232.44;;;3.01
73685;BMP280;61985;51.070;14.064;2023-11-19T03:31:26;98230.13;;;3.00
73685;BMP280;61985;51.070;14.064;2023-11-19T03:33:57;98211.50;;;3.00
73685;BMP280;61985;51.070;14.064;2023-11-19T03:36:25;98217.59;;;3.00
73685;BMP280;61985;51.070;14.064;2023-11-19T03:38:58;98203.91;;;3.02
73685;BMP280;61985;51.070;14.064;2023-11-19T03:41:25;98205.06;;;3.01
73685;BMP280;61985;51.070;14.064;2023-11-19T03:43:51;98195.53;;;3.00
73685;BMP280;61985;51.070;14.064;2023-11-19T03:46:22;98194.03;;;3.06
73685;BMP280;61985;51.070;14.064;2023-11-19T03:48:50;98192.13;;;3.03
73685;BMP280;61985;51.070;14.064;2023-11-19T03:51:18;98190.59;;;2.98
73685;BMP280;61985;51.070;14.064;2023-11-19T03:53:48;98177.66;;;3.00
73685;BMP280;61985;51.070;14.064;2023-11-19T03:56:16;98178.06;;;3.02
73685;BMP280;61985;51.070;14.064;2023-11-19T03:58:42;98170.06;;;3.02
73685;BMP280;61985;51.070;14.064;2023-11-19T04:01:11;98160.56;;;3.05
73685;BMP280;61985;51.070;14.064;2023-11-19T04:03:38;98153.31;;;3.02
73685;BMP280;61985;51.070;14.064;2023-11-19T04:06:04;98154.47;;;3.08
73685;BMP280;61985;51.070;14.064;2023-11-19T04:08:30;98149.94;;;3.08
73685;BMP280;61985;51.070;14.064;2023-11-19T04:11:00;98162.09;;;3.06
73685;BMP280;61985;51.070;14.064;2023-11-19T04:13:28;98151.44;;;3.06
73685;BMP280;61985;51.070;14.064;2023-11-19T04:15:54;98137.75;;;3.11
73685;BMP280;61985;51.070;14.064;2023-11-19T04:18:20;98123.69;;;3.07
73685;BMP280;61985;51.070;14.064;2023-11-19T04:20:48;98117.59;;;3.10
73685;BMP280;61985;51.070;14.064;2023-11-19T04:23:17;98111.88;;;3.08
73685;BMP280;61985;51.070;14.064;2023-11-19T04:25:45;98114.56;;;3.08
73685;BMP280;61985;51.070;14.064;2023-11-19T04:28:11;98106.94;;;3.03
73685;BMP280;61985;51.070;14.064;2023-11-19T04:30:42;98113.03;;;3.03
73685;BMP280;61985;51.070;14.064;2023-11-19T04:33:20;98098.59;;;3.01
73685;BMP280;61985;51.070;14.064;2023-11-19T04:47:25;98091.78;;;2.96
73685;BMP280;61985;51.070;14.064;2023-11-19T04:50:22;98083.03;;;2.88
73685;BMP280;61985;51.070;14.064;2023-11-19T04:52:59;98073.91;;;2.93
73685;BMP280;61985;51.070;14.064;2023-11-19T04:55:32;98067.44;;;2.90
73685;BMP280;61985;51.070;14.064;2023-11-19T04:58:07;98062.50;;;2.85
73685;BMP280;61985;51.070;14.064;2023-11-19T05:00:32;98053.38;;;2.86
73685;BMP280;61985;51.070;14.064;2023-11-19T05:02:58;98046.53;;;2.85
73685;BMP280;61985;51.070;14.064;2023-11-19T05:05:24;98043.09;;;2.85
73685;BMP280;61985;51.070;14.064;2023-11-19T05:07:49;98036.25;;;2.80
73685;BMP280;61985;51.070;14.064;2023-11-19T05:10:15;98041.59;;;2.80
73685;BMP280;61985;51.070;14.064;2023-11-19T05:12:40;98025.25;;;2.78
73685;BMP280;61985;51.070;14.064;2023-11-19T05:15:06;98025.25;;;2.78
73685;BMP280;61985;51.070;14.064;2023-11-19T05:17:33;98030.97;;;2.84
73685;BMP280;61985;51.070;14.064;2023-11-19T05:19:58;98036.25;;;2.80
73685;BMP280;61985;51.070;14.064;2023-11-19T05:22:24;98031.31;;;2.79
73685;BMP280;61985;51.070;14.064;2023-11-19T05:24:49;98030.19;;;2.83
73685;BMP280;61985;51.070;14.064;2023-11-19T05:27:15;98030.19;;;2.83
73685;BMP280;61985;51.070;14.064;2023-11-19T05:29:40;98020.69;;;2.82
73685;BMP280;61985;51.070;14.064;2023-11-19T05:32:07;98008.91;;;2.80
73685;BMP280;61985;51.070;14.064;2023-11-19T05:34:32;98018.78;;;2.79
73685;BMP280;61985;51.070;14.064;2023-11-19T05:36:58;98010.44;;;2.81
73685;BMP280;61985;51.070;14.064;2023-11-19T05:39:23;98002.84;;;2.79
73685;BMP280;61985;51.070;14.064;2023-11-19T05:41:50;97994.84;;;2.83
73685;BMP280;61985;51.070;14.064;2023-11-19T05:44:16;97997.88;;;2.81
73685;BMP280;61985;51.070;14.064;2023-11-19T05:46:42;97992.56;;;2.81
73685;BMP280;61985;51.070;14.064;2023-11-19T05:49:08;97986.09;;;2.82
73685;BMP280;61985;51.070;14.064;2023-11-19T05:51:38;97992.94;;;2.80
73685;BMP280;61985;51.070;14.064;2023-11-19T05:54:05;97991.78;;;2.77
73685;BMP280;61985;51.070;14.064;2023-11-19T05:56:33;97989.91;;;2.78
73685;BMP280;61985;51.070;14.064;2023-11-19T05:58:59;97976.97;;;2.80
73685;BMP280;61985;51.070;14.064;2023-11-19T06:01:29;97966.34;;;2.80
73685;BMP280;61985;51.070;14.064;2023-11-19T06:03:54;97976.22;;;2.83
73685;BMP280;61985;51.070;14.064;2023-11-19T06:06:20;97973.19;;;2.81
73685;BMP280;61985;51.070;14.064;2023-11-19T06:08:45;97977.72;;;2.80
73685;BMP280;61985;51.070;14.064;2023-11-19T06:11:12;97971.28;;;2.81
73685;BMP280;61985;51.070;14.064;2023-11-19T06:13:40;97975.06;;;2.80
73685;BMP280;61985;51.070;14.064;2023-11-19T06:16:05;97971.28;;;2.81
73685;BMP280;61985;51.070;14.064;2023-11-19T06:18:31;97963.66;;;2.83
73685;BMP280;61985;51.070;14.064;2023-11-19T06:20:56;97957.22;;;2.81
73685;BMP280;61985;51.070;14.064;2023-11-19T06:23:22;97968.63;;;2.81
73685;BMP280;61985;51.070;14.064;2023-11-19T06:25:47;97961.72;;;2.98
73685;BMP280;61985;51.070;14.064;2023-11-19T06:28:13;97948.06;;;2.93
73685;BMP280;61985;51.070;14.064;2023-11-19T06:30:38;97941.97;;;2.96
73685;BMP280;61985;51.070;14.064;2023-11-19T06:33:04;97921.84;;;2.91
73685;BMP280;61985;51.070;14.064;2023-11-19T06:35:29;97927.50;;;3.00
73685;BMP280;61985;51.070;14.064;2023-11-19T06:38:02;97910.44;;;2.98
73685;BMP280;61985;51.070;14.064;2023-11-19T06:40:27;97897.50;;;2.93
73685;BMP280;61985;51.070;14.064;2023-11-19T06:42:54;97899.00;;;2.97
73685;BMP280;61985;51.070;14.064;2023-11-19T06:45:19;97890.28;;;2.97
73685;BMP280;61985;51.070;14.064;2023-11-19T06:47:45;97913.09;;;2.98
73685;BMP280;61985;51.070;14.064;2023-11-19T06:50:10;97904.72;;;2.96
73685;BMP280;61985;51.070;14.064;2023-11-19T06:52:37;97923.69;;;3.01
73685;BMP280;61985;51.070;14.064;2023-11-19T06:55:03;97929.75;;;3.02
73685;BMP280;61985;51.070;14.064;2023-11-19T06:57:29;97932.06;;;3.07
73685;BMP280;61985;51.070;14.064;2023-11-19T07:12:51;97917.19;;;3.17
73685;BMP280;61985;51.070;14.064;2023-11-19T08:00:58;97925.03;;;3.42
73685;BMP280;61985;51.070;14.064;2023-11-19T08:14:38;97927.91;;;3.73
73685;BMP280;61985;51.070;14.064;2023-11-19T08:17:06;97922.19;;;3.74
73685;BMP280;61985;51.070;14.064;2023-11-19T08:19:31;97922.59;;;3.76
73685;BMP280;61985;51.070;14.064;2023-11-19T08:24:32;97933.97;;;3.77
73685;BMP280;61985;51.070;14.064;2023-11-19T08:26:58;97920.66;;;3.77
73685;BMP280;61985;51.070;14.064;2023-11-19T08:34:34;97923.59;;;3.90
73685;BMP280;61985;51.070;14.064;2023-11-19T08:37:02;97922.00;;;3.99
73685;BMP280;61985;51.070;14.064;2023-11-19T08:39:28;97908.69;;;3.99
73685;BMP280;61985;51.070;14.064;2023-11-19T09:10:18;97910.25;;;4.73
73685;BMP280;61985;51.070;14.064;2023-11-19T12:57:43;97834.09;;;10.75
73685;BMP280;61985;51.070;14.064;2023-11-19T13:00:19;97841.66;;;10.80
73685;BMP280;61985;51.070;14.064;2023-11-19T13:02:49;97867.69;;;10.83
73685;BMP280;61985;51.070;14.064;2023-11-19T13:05:32;97870.03;;;10.41
73685;BMP280;61985;51.070;14.064;2023-11-19T13:10:50;97853.03;;;9.78
73685;BMP280;61985;51.070;14.064;2023-11-19T13:14:01;97856.34;;;9.60
73685;BMP280;61985;51.070;14.064;2023-11-19T13:16:29;97846.53;;;9.53
73685;BMP280;61985;51.070;14.064;2023-11-19T13:18:55;97852.16;;;9.46
73685;BMP280;61985;51.070;14.064;2023-11-19T13:21:20;97851.41;;;9.32
73685;BMP280;61985;51.070;14.064;2023-11-19T13:24:11;97836.38;;;9.22
73685;BMP280;61985;51.070;14.064;2023-11-19T13:26:38;97815.53;;;9.13
73685;BMP280;61985;51.070;14.064;2023-11-19T13:29:04;97825.91;;;9.02
73685;BMP280;61985;51.070;14.064;2023-11-19T13:31:33;97822.03;;;8.90
73685;BMP280;61985;51.070;14.064;2023-11-19T13:33:59;97822.56;;;8.85
73685;BMP280;61985;51.070;14.064;2023-11-19T13:36:24;97808.19;;;8.79
73685;BMP280;61985;51.070;14.064;2023-11-19T13:38:51;97810.88;;;8.79
73685;BMP280;61985;51.070;14.064;2023-11-19T13:41:17;97813.84;;;8.94
73685;BMP280;61985;51.070;14.064;2023-11-19T13:43:45;97816.38;;;9.23
73685;BMP280;61985;51.070;14.064;2023-11-19T13:46:11;97812.13;;;9.48
73685;BMP280;61985;51.070;14.064;2023-11-19T13:48:37;97821.06;;;9.80
73685;BMP280;61985;51.070;14.064;2023-11-19T13:51:02;97819.09;;;10.02
73685;BMP280;61985;51.070;14.064;2023-11-19T13:53:38;97819.78;;;10.16
73685;BMP280;61985;51.070;14.064;2023-11-19T13:56:25;97824.03;;;10.26
73685;BMP280;61985;51.070;14.064;2023-11-19T14:06:35;97826.03;;;10.75
73685;BMP280;61985;51.070;14.064;2023-11-19T14:09:00;97828.19;;;10.49
73685;BMP280;61985;51.070;14.064;2023-11-19T14:11:26;97834.91;;;10.44
73685;BMP280;61985;51.070;14.064;2023-11-19T14:13:52;97840.31;;;10.22
73685;BMP280;61985;51.070;14.064;2023-11-19T14:16:17;97829.75;;;10.06
73685;BMP280;61985;51.070;14.064;2023-11-19T14:18:46;97835.00;;;10.09
73685;BMP280;61985;51.070;14.064;2023-11-19T14:21:14;97833.59;;;9.96
73685;BMP280;61985;51.070;14.064;2023-11-19T14:23:41;97839.41;;;9.94
73685;BMP280;61985;51.070;14.064;2023-11-19T14:28:46;97828.75;;;9.90
73685;BMP280;61985;51.070;14.064;2023-11-19T14:31:11;97833.28;;;9.94
73685;BMP280;61985;51.070;14.064;2023-11-19T14:33:37;97831.88;;;9.89
73685;BMP280;61985;51.070;14.064;2023-11-19T14:36:03;97837.50;;;9.82
73685;BMP280;61985;51.070;14.064;2023-11-19T14:38:29;97834.75;;;9.73
73685;BMP280;61985;51.070;14.064;2023-11-19T14:40:55;97839.69;;;9.74
73685;BMP280;61985;51.070;14.064;2023-11-19T14:43:20;97845.38;;;9.76
73685;BMP280;61985;51.070;14.064;2023-11-19T14:45:46;97838.00;;;9.89
73685;BMP280;61985;51.070;14.064;2023-11-19T14:48:11;97841.44;;;9.90
73685;BMP280;61985;51.070;14.064;2023-11-19T14:50:37;97850.09;;;9.85
73685;BMP280;61985;51.070;14.064;2023-11-19T14:53:02;97842.03;;;9.85
73685;BMP280;61985;51.070;14.064;2023-11-19T14:55:28;97835.91;;;9.71
73685;BMP280;61985;51.070;14.064;2023-11-19T14:57:54;97838.50;;;9.75
73685;BMP280;61985;51.070;14.064;2023-11-19T15:00:20;97829.88;;;9.58
73685;BMP280;61985;51.070;14.064;2023-11-19T15:02:46;97835.75;;;9.53
73685;BMP280;61985;51.070;14.064;2023-11-19T15:05:11;97839.09;;;9.57
73685;BMP280;61985;51.070;14.064;2023-11-19T15:07:38;97830.22;;;9.47
73685;BMP280;61985;51.070;14.064;2023-11-19T15:10:06;97831.00;;;9.35
73685;BMP280;61985;51.070;14.064;2023-11-19T15:12:36;97831.03;;;9.22
73685;BMP280;61985;51.070;14.064;2023-11-19T15:15:08;97833.59;;;9.26
73685;BMP280;61985;51.070;14.064;2023-11-19T15:17:39;97840.88;;;9.25
73685;BMP280;61985;51.070;14.064;2023-11-19T15:20:04;97839.63;;;9.17
73685;BMP280;61985;51.070;14.064;2023-11-19T15:22:30;97843.50;;;9.03
73685;BMP280;61985;51.070;14.064;2023-11-19T15:24:56;97841.47;;;8.94
73685;BMP280;61985;51.070;14.064;2023-11-19T15:27:22;97853.81;;;9.05
73685;BMP280;61985;51.070;14.064;2023-11-19T15:29:48;97855.78;;;8.91
73685;BMP280;61985;51.070;14.064;2023-11-19T15:32:14;97847.16;;;8.97
73685;BMP280;61985;51.070;14.064;2023-11-19T15:34:39;97846.94;;;9.04
73685;BMP280;61985;51.070;14.064;2023-11-19T15:37:07;97841.94;;;8.93
73685;BMP280;61985;51.070;14.064;2023-11-19T15:39:33;97848.16;;;8.90
73685;BMP280;61985;51.070;14.064;2023-11-19T15:41:59;97849.44;;;8.98
73685;BMP280;61985;51.070;14.064;2023-11-19T15:44:25;97861.59;;;8.90
73685;BMP280;61985;51.070;14.064;2023-11-19T15:46:50;97861.22;;;8.75
73685;BMP280;61985;51.070;14.064;2023-11-19T15:49:16;97863.28;;;8.71
73685;BMP280;61985;51.070;14.064;2023-11-19T15:51:42;97861.03;;;8.69
73685;BMP280;61985;51.070;14.064;2023-11-19T15:54:07;97865.88;;;8.74
73685;BMP280;61985;51.070;14.064;2023-11-19T15:56:33;97860.38;;;8.65
73685;BMP280;61985;51.070;14.064;2023-11-19T15:58:59;97865.53;;;8.60
73685;BMP280;61985;51.070;14.064;2023-11-19T16:01:24;97870.22;;;8.55
73685;BMP280;61985;51.070;14.064;2023-11-19T16:03:50;97861.22;;;8.49
73685;BMP280;61985;51.070;14.064;2023-11-19T16:06:16;97865.56;;;8.43
73685;BMP280;61985;51.070;14.064;2023-11-19T16:08:43;97868.13;;;8.34
73685;BMP280;61985;51.070;14.064;2023-11-19T16:11:09;97872.47;;;8.44
73685;BMP280;61985;51.070;14.064;2023-11-19T16:13:35;97867.66;;;8.39
73685;BMP280;61985;51.070;14.064;2023-11-19T16:16:01;97880.38;;;8.35
73685;BMP280;61985;51.070;14.064;2023-11-19T16:18:26;97873.19;;;8.32
73685;BMP280;61985;51.070;14.064;2023-11-19T16:29:49;97883.78;;;8.52
73685;BMP280;61985;51.070;14.064;2023-11-19T16:32:14;97885.16;;;8.57
73685;BMP280;61985;51.070;14.064;2023-11-19T16:34:40;97880.06;;;8.62
73685;BMP280;61985;51.070;14.064;2023-11-19T16:37:08;97874.09;;;8.54
73685;BMP280;61985;51.070;14.064;2023-11-19T16:39:35;97870.66;;;8.54
73685;BMP280;61985;51.070;14.064;2023-11-19T16:42:00;97871.31;;;8.58
73685;BMP280;61985;51.070;14.064;2023-11-19T16:44:26;97873.47;;;8.50
73685;BMP280;61985;51.070;14.064;2023-11-19T16:46:51;97885.38;;;8.49
73685;BMP280;61985;51.070;14.064;2023-11-19T16:49:16;97875.81;;;8.48
73685;BMP280;61985;51.070;14.064;2023-11-19T16:51:45;97880.94;;;8.43
73685;BMP280;61985;51.070;14.064;2023-11-19T16:54:11;97878.38;;;8.39
73685;BMP280;61985;51.070;14.064;2023-11-19T16:56:37;97889.75;;;8.43
73685;BMP280;61985;51.070;14.064;2023-11-19T16:59:03;97884.81;;;8.42
73685;BMP280;61985;51.070;14.064;2023-11-19T17:01:29;97880.28;;;8.39
73685;BMP280;61985;51.070;14.064;2023-11-19T17:03:55;97884.06;;;8.41
73685;BMP280;61985;51.070;14.064;2023-11-19T17:06:23;97885.00;;;8.34
73685;BMP280;61985;51.070;14.064;2023-11-19T17:08:48;97884.38;;;8.43
73685;BMP280;61985;51.070;14.064;2023-11-19T17:11:14;97885.38;;;8.49
73685;BMP280;61985;51.070;14.064;2023-11-19T17:13:39;97884.53;;;8.52
73685;BMP280;61985;51.070;14.064;2023-11-19T17:16:05;97882.16;;;8.54
73685;BMP280;61985;51.070;14.064;2023-11-19T17:18:32;97881.22;;;8.61
73685;BMP280;61985;51.070;14.064;2023-11-19T17:20:59;97885.41;;;8.62
73685;BMP280;61985;51.070;14.064;2023-11-19T17:23:26;97884.97;;;8.64
73685;BMP280;61985;51.070;14.064;2023-11-19T17:25:52;97887.97;;;8.66
73685;BMP280;61985;51.070;14.064;2023-11-19T17:28:17;97880.47;;;8.61
73685;BMP280;61985;51.070;14.064;2023-11-19T17:30:43;97882.91;;;8.55
73685;BMP280;61985;51.070;14.064;2023-11-19T17:33:09;97880.47;;;8.61
73685;BMP280;61985;51.070;14.064;2023-11-19T17:35:35;97892.13;;;8.54
73685;BMP280;61985;51.070;14.064;2023-11-19T17:38:01;97890.97;;;8.55
73685;BMP280;61985;51.070;14.064;2023-11-19T17:40:27;97883.78;;;8.52
73685;BMP280;61985;51.070;14.064;2023-11-19T17:42:53;97897.63;;;8.50
73685;BMP280;61985;51.070;14.064;2023-11-19T17:45:19;97890.22;;;8.54
73685;BMP280;61985;51.070;14.064;2023-11-19T17:47:44;97880.16;;;8.71
73685;BMP280;61985;51.070;14.064;2023-11-19T17:50:10;97887.88;;;8.69
73685;BMP280;61985;51.070;14.064;2023-11-19T17:52:36;97879.28;;;8.74
73685;BMP280;61985;51.070;14.064;2023-11-19T17:55:02;97877.47;;;8.84
73685;BMP280;61985;51.070;14.064;2023-11-19T17:57:31;97886.84;;;8.92
73685;BMP280;61985;51.070;14.064;2023-11-19T17:59:57;97886.81;;;8.80
73685;BMP280;61985;51.070;14.064;2023-11-19T18:02:23;97881.44;;;8.80
73685;BMP280;61985;51.070;14.064;2023-11-19T18:04:49;97886.50;;;8.78
73685;BMP280;61985;51.070;14.064;2023-11-19T18:07:15;97884.88;;;8.80
73685;BMP280;61985;51.070;14.064;2023-11-19T18:09:42;97886.69;;;8.83
73685;BMP280;61985;51.070;14.064;2023-11-19T18:12:11;97888.22;;;8.84
73685;BMP280;61985;51.070;14.064;2023-11-19T18:14:38;97881.66;;;8.85
73685;BMP280;61985;51.070;14.064;2023-11-19T18:17:04;97881.44;;;8.80
73685;BMP280;61985;51.070;14.064;2023-11-19T18:19:36;97886.63;;;8.87
73685;BMP280;61985;51.070;14.064;2023-11-19T18:22:02;97893.78;;;8.77
73685;BMP280;61985;51.070;14.064;2023-11-19T18:24:30;97890.78;;;8.75
73685;BMP280;61985;51.070;14.064;2023-11-19T18:26:56;97899.50;;;8.79
73685;BMP280;61985;51.070;14.064;2023-11-19T18:29:22;97892.84;;;8.84
73685;BMP280;61985;51.070;14.064;2023-11-19T18:31:48;97892.31;;;8.89
73685;BMP280;61985;51.070;14.064;2023-11-19T18:34:14;97892.72;;;8.87
73685;BMP280;61985;51.070;14.064;2023-11-19T18:36:40;97894.16;;;8.92
73685;BMP280;61985;51.070;14.064;2023-11-19T18:39:07;97898.09;;;8.87
73685;BMP280;61985;51.070;14.064;2023-11-19T18:41:35;97897.56;;;8.80
73685;BMP280;61985;51.070;14.064;2023-11-19T18:44:01;97898.66;;;8.82
73685;BMP280;61985;51.070;14.064;2023-11-19T18:46:28;97893.91;;;8.86
73685;BMP280;61985;51.070;14.064;2023-11-19T18:48:53;97891.56;;;8.88
73685;BMP280;61985;51.070;14.064;2023-11-19T18:51:19;97892.19;;;8.80
73685;BMP280;61985;51.070;14.064;2023-11-19T18:53:45;97893.59;;;8.84
73685;BMP280;61985;51.070;14.064;2023-11-19T18:56:12;97900.25;;;8.92
73685;BMP280;61985;51.070;14.064;2023-11-19T18:58:39;97904.44;;;8.93
73685;BMP280;61985;51.070;14.064;2023-11-19T19:01:04;97903.72;;;8.93
73685;BMP280;61985;51.070;14.064;2023-11-19T19:03:30;97906.16;;;9.00
73685;BMP280;61985;51.070;14.064;2023-11-19T19:05:59;97907.56;;;8.92
73685;BMP280;61985;51.070;14.064;2023-11-19T19:08:25;97906.28;;;8.97
73685;BMP280;61985;51.070;14.064;2023-11-19T19:10:56;97910.28;;;8.92
73685;BMP280;61985;51.070;14.064;2023-11-19T19:13:22;97899.94;;;8.90
73685;BMP280;61985;51.070;14.064;2023-11-19T19:15:48;97908.84;;;8.87
73685;BMP280;61985;51.070;14.064;2023-11-19T19:18:13;97910.47;;;8.72
73685;BMP280;61985;51.070;14.064;2023-11-19T19:20:39;97903.25;;;8.69
73685;BMP280;61985;51.070;14.064;2023-11-19T19:23:05;97904.00;;;8.69
73685;BMP280;61985;51.070;14.064;2023-11-19T19:25:30;97917.38;;;8.57
73685;BMP280;61985;51.070;14.064;2023-11-19T19:27:56;97910.06;;;8.44
73685;BMP280;61985;51.070;14.064;2023-11-19T19:30:23;97913.06;;;8.46
73685;BMP280;61985;51.070;14.064;2023-11-19T19:32:49;97910.59;;;8.39
73685;BMP280;61985;51.070;14.064;2023-11-19T19:35:15;97906.41;;;8.38
73685;BMP280;61985;51.070;14.064;2023-11-19T19:37:42;97910.91;;;8.41
73685;BMP280;61985;51.070;14.064;2023-11-19T19:40:10;97916.94;;;8.45
73685;BMP280;61985;51.070;14.064;2023-11-19T19:42:37;97916.28;;;8.41
73685;BMP280;61985;51.070;14.064;2023-11-19T19:45:03;97904.66;;;8.31
73685;BMP280;61985;51.070;14.064;2023-11-19T19:47:29;97915.81;;;8.30
73685;BMP280;61985;51.070;14.064;2023-11-19T19:49:54;97916.66;;;8.27
73685;BMP280;61985;51.070;14.064;2023-11-19T19:52:20;97918.44;;;8.17
73685;BMP280;61985;51.070;14.064;2023-11-19T19:54:45;97921.94;;;8.30
73685;BMP280;61985;51.070;14.064;2023-11-19T19:57:10;97910.88;;;8.28
73685;BMP280;61985;51.070;14.064;2023-11-19T19:59:36;97912.59;;;8.35
73685;BMP280;61985;51.070;14.064;2023-11-19T20:02:01;97908.75;;;8.36
73685;BMP280;61985;51.070;14.064;2023-11-19T20:04:27;97904.38;;;8.42
73685;BMP280;61985;51.070;14.064;2023-11-19T20:06:53;97917.81;;;8.55
73685;BMP280;61985;51.070;14.064;2023-11-19T20:09:18;97912.03;;;8.57
73685;BMP280;61985;51.070;14.064;2023-11-19T20:11:44;97922.75;;;8.57
73685;BMP280;61985;51.070;14.064;2023-11-19T20:14:12;97918.38;;;8.63
73685;BMP280;61985;51.070;14.064;2023-11-19T20:16:37;97911.41;;;8.65
73685;BMP280;61985;51.070;14.064;2023-11-19T20:19:03;97908.81;;;8.62
73685;BMP280;61985;51.070;14.064;2023-11-19T20:21:28;97912.81;;;8.70
73685;BMP280;61985;51.070;14.064;2023-11-19T20:23:54;97915.38;;;8.73